sensor_id;sensor_type;location;lat;lon;timestamp;temperature;humidity
35559;DHT22;21661;50.794;-1.066;2023-05-17T00:01:48;13.10;99.90
35559;DHT22;21661;50.794;-1.066;2023-05-17T00:04:14;13.10;99.90
35559;DHT22;21661;50.794;-1.066;2023-05-17T00:06:41;13.10;99.90
35559;DHT22;21661;50.794;-1.066;2023-05-17T00:09:07;13.00;99.90
35559;DHT22;21661;50.794;-1.066;2023-05-17T00:11:33;13.00;99.90
35559;DHT22;21661;50.794;-1.066;2023-05-17T00:13:59;13.00;99.90
35559;DHT22;21661;50.794;-1.066;2023-05-17T00:16:24;13.00;99.90
35559;DHT22;21661;50.794;-1.066;2023-05-17T00:18:50;12.90;99.90
35559;DHT22;21661;50.794;-1.066;2023-05-17T00:21:16;12.90;99.90
35559;DHT22;21661;50.794;-1.066;2023-05-17T00:23:42;12.90;99.90
35559;DHT22;21661;50.794;-1.066;2023-05-17T00:26:07;12.90;99.90
35559;DHT22;21661;50.794;-1.066;2023-05-17T00:28:33;12.90;99.90
35559;DHT22;21661;50.794;-1.066;2023-05-17T00:30:59;12.80;99.90
35559;DHT22;21661;50.794;-1.066;2023-05-17T00:33:24;12.80;99.90
35559;DHT22;21661;50.794;-1.066;2023-05-17T00:35:50;12.80;99.90
35559;DHT22;21661;50.794;-1.066;2023-05-17T00:38:15;12.80;99.90
35559;DHT22;21661;50.794;-1.066;2023-05-17T00:40:41;12.70;99.90
35559;DHT22;21661;50.794;-1.066;2023-05-17T00:43:07;12.70;99.90
35559;DHT22;21661;50.794;-1.066;2023-05-17T00:45:32;12.70;99.90
35559;DHT22;21661;50.794;-1.066;2023-05-17T00:47:58;12.70;99.90
35559;DHT22;21661;50.794;-1.066;2023-05-17T00:50:24;12.60;99.90
35559;DHT22;21661;50.794;-1.066;2023-05-17T00:52:49;12.70;99.90
35559;DHT22;21661;50.794;-1.066;2023-05-17T00:55:15;12.70;99.90
35559;DHT22;21661;50.794;-1.066;2023-05-17T00:57:41;12.70;99.90
35559;DHT22;21661;50.794;-1.066;2023-05-17T01:00:07;12.70;99.90
35559;DHT22;21661;50.794;-1.066;2023-05-17T01:02:33;12.70;99.90
35559;DHT22;21661;50.794;-1.066;2023-05-17T01:04:59;12.60;99.90
35559;DHT22;21661;50.794;-1.066;2023-05-17T01:07:25;12.60;99.90
35559;DHT22;21661;50.794;-1.066;2023-05-17T01:09:51;12.50;99.90
35559;DHT22;21661;50.794;-1.066;2023-05-17T01:15:29;12.60;99.90
35559;DHT22;21661;50.794;-1.066;2023-05-17T01:20:42;12.60;99.90
35559;DHT22;21661;50.794;-1.066;2023-05-17T01:26:12;12.60;99.90
35559;DHT22;21661;50.794;-1.066;2023-05-17T01:28:39;12.60;99.90
35559;DHT22;21661;50.794;-1.066;2023-05-17T01:31:07;12.60;99.90
35559;DHT22;21661;50.794;-1.066;2023-05-17T01:33:34;12.50;99.90
35559;DHT22;21661;50.794;-1.066;2023-05-17T01:36:01;12.50;99.90
35559;DHT22;21661;50.794;-1.066;2023-05-17T01:38:26;12.50;99.90
35559;DHT22;21661;50.794;-1.066;2023-05-17T01:43:50;12.50;99.90
35559;DHT22;21661;50.794;-1.066;2023-05-17T01:46:37;12.50;99.90
35559;DHT22;21661;50.794;-1.066;2023-05-17T01:49:10;12.40;99.90
35559;DHT22;21661;50.794;-1.066;2023-05-17T01:51:45;12.40;99.90
35559;DHT22;21661;50.794;-1.066;2023-05-17T01:54:12;12.40;99.90
35559;DHT22;21661;50.794;-1.066;2023-05-17T01:56:42;12.40;99.90
35559;DHT22;21661;50.794;-1.066;2023-05-17T01:59:10;12.40;99.90
35559;DHT22;21661;50.794;-1.066;2023-05-17T02:01:38;12.40;99.90
35559;DHT22;21661;50.794;-1.066;2023-05-17T02:04:03;12.40;99.90
35559;DHT22;21661;50.794;-1.066;2023-05-17T02:06:29;12.40;99.90
35559;DHT22;21661;50.794;-1.066;2023-05-17T02:08:55;12.40;99.90
35559;DHT22;21661;50.794;-1.066;2023-05-17T02:11:22;12.30;99.90
35559;DHT22;21661;50.794;-1.066;2023-05-17T02:13:48;12.30;99.90
35559;DHT22;21661;50.794;-1.066;2023-05-17T02:16:14;12.30;99.90
35559;DHT22;21661;50.794;-1.066;2023-05-17T02:18:39;12.30;99.90
35559;DHT22;21661;50.794;-1.066;2023-05-17T02:21:05;12.20;99.90
35559;DHT22;21661;50.794;-1.066;2023-05-17T02:23:31;12.20;99.90
35559;DHT22;21661;50.794;-1.066;2023-05-17T02:25:56;12.20;99.90
35559;DHT22;21661;50.794;-1.066;2023-05-17T02:28:22;12.20;99.90
35559;DHT22;21661;50.794;-1.066;2023-05-17T02:30:47;12.20;99.90
35559;DHT22;21661;50.794;-1.066;2023-05-17T02:33:13;12.20;99.90
35559;DHT22;21661;50.794;-1.066;2023-05-17T02:35:39;12.30;99.90
35559;DHT22;21661;50.794;-1.066;2023-05-17T02:38:04;12.20;99.90
35559;DHT22;21661;50.794;-1.066;2023-05-17T02:40:30;12.20;99.90
35559;DHT22;21661;50.794;-1.066;2023-05-17T02:42:55;12.20;99.90
35559;DHT22;21661;50.794;-1.066;2023-05-17T02:45:21;12.20;99.90
35559;DHT22;21661;50.794;-1.066;2023-05-17T02:47:47;12.20;99.90
35559;DHT22;21661;50.794;-1.066;2023-05-17T02:50:12;12.10;99.90
35559;DHT22;21661;50.794;-1.066;2023-05-17T02:52:38;12.10;99.90
35559;DHT22;21661;50.794;-1.066;2023-05-17T02:55:04;12.00;99.90
35559;DHT22;21661;50.794;-1.066;2023-05-17T02:57:29;11.90;99.90
35559;DHT22;21661;50.794;-1.066;2023-05-17T02:59:55;11.90;99.90
35559;DHT22;21661;50.794;-1.066;2023-05-17T03:02:20;11.80;99.90
35559;DHT22;21661;50.794;-1.066;2023-05-17T03:04:46;11.70;99.90
35559;DHT22;21661;50.794;-1.066;2023-05-17T03:07:12;11.80;99.90
35559;DHT22;21661;50.794;-1.066;2023-05-17T03:09:37;11.80;99.90
35559;DHT22;21661;50.794;-1.066;2023-05-17T03:12:03;11.80;99.90
35559;DHT22;21661;50.794;-1.066;2023-05-17T03:14:29;11.70;99.90
35559;DHT22;21661;50.794;-1.066;2023-05-17T03:16:55;11.80;99.90
35559;DHT22;21661;50.794;-1.066;2023-05-17T03:19:20;11.60;99.90
35559;DHT22;21661;50.794;-1.066;2023-05-17T03:21:46;11.70;99.90
35559;DHT22;21661;50.794;-1.066;2023-05-17T03:24:12;11.70;99.90
35559;DHT22;21661;50.794;-1.066;2023-05-17T03:26:37;11.60;99.90
35559;DHT22;21661;50.794;-1.066;2023-05-17T03:29:03;11.60;99.90
35559;DHT22;21661;50.794;-1.066;2023-05-17T03:31:29;11.60;99.90
35559;DHT22;21661;50.794;-1.066;2023-05-17T03:33:55;11.50;99.90
35559;DHT22;21661;50.794;-1.066;2023-05-17T03:36:21;11.60;99.90
35559;DHT22;21661;50.794;-1.066;2023-05-17T03:38:47;11.50;99.90
35559;DHT22;21661;50.794;-1.066;2023-05-17T03:41:13;11.50;99.90
35559;DHT22;21661;50.794;-1.066;2023-05-17T03:43:39;11.50;99.90
35559;DHT22;21661;50.794;-1.066;2023-05-17T03:46:05;11.40;99.90
35559;DHT22;21661;50.794;-1.066;2023-05-17T03:48:30;11.20;99.90
35559;DHT22;21661;50.794;-1.066;2023-05-17T03:50:56;11.30;99.90
35559;DHT22;21661;50.794;-1.066;2023-05-17T03:53:21;11.30;99.90
35559;DHT22;21661;50.794;-1.066;2023-05-17T03:55:47;11.20;99.90
35559;DHT22;21661;50.794;-1.066;2023-05-17T03:58:13;11.20;99.90
35559;DHT22;21661;50.794;-1.066;2023-05-17T04:00:38;11.20;99.90
35559;DHT22;21661;50.794;-1.066;2023-05-17T04:03:04;11.10;99.90
35559;DHT22;21661;50.794;-1.066;2023-05-17T04:05:29;11.10;99.90
35559;DHT22;21661;50.794;-1.066;2023-05-17T04:07:55;11.10;99.90
35559;DHT22;21661;50.794;-1.066;2023-05-17T04:10:21;11.10;99.90
35559;DHT22;21661;50.794;-1.066;2023-05-17T04:12:46;11.10;99.90
35559;DHT22;21661;50.794;-1.066;2023-05-17T04:15:12;11.10;99.90
35559;DHT22;21661;50.794;-1.066;2023-05-17T04:17:37;11.10;99.90
35559;DHT22;21661;50.794;-1.066;2023-05-17T04:20:03;11.20;99.90
35559;DHT22;21661;50.794;-1.066;2023-05-17T04:22:31;11.10;99.90
35559;DHT22;21661;50.794;-1.066;2023-05-17T04:24:56;11.10;99.90
35559;DHT22;21661;50.794;-1.066;2023-05-17T04:27:22;11.20;99.90
35559;DHT22;21661;50.794;-1.066;2023-05-17T04:29:48;11.10;99.90
35559;DHT22;21661;50.794;-1.066;2023-05-17T04:32:13;11.10;99.90
35559;DHT22;21661;50.794;-1.066;2023-05-17T04:34:39;11.10;99.90
35559;DHT22;21661;50.794;-1.066;2023-05-17T04:37:05;11.10;99.90
35559;DHT22;21661;50.794;-1.066;2023-05-17T04:39:31;11.10;99.90
35559;DHT22;21661;50.794;-1.066;2023-05-17T04:41:57;11.00;99.90
35559;DHT22;21661;50.794;-1.066;2023-05-17T04:44:22;11.10;99.90
35559;DHT22;21661;50.794;-1.066;2023-05-17T04:46:48;11.10;99.90
35559;DHT22;21661;50.794;-1.066;2023-05-17T04:49:14;11.10;99.90
35559;DHT22;21661;50.794;-1.066;2023-05-17T04:51:40;11.20;99.90
35559;DHT22;21661;50.794;-1.066;2023-05-17T04:54:05;11.20;99.90
35559;DHT22;21661;50.794;-1.066;2023-05-17T04:56:34;11.20;99.90
35559;DHT22;21661;50.794;-1.066;2023-05-17T04:59:00;11.10;99.90
35559;DHT22;21661;50.794;-1.066;2023-05-17T05:01:26;11.10;99.90
35559;DHT22;21661;50.794;-1.066;2023-05-17T05:03:55;11.10;99.90
35559;DHT22;21661;50.794;-1.066;2023-05-17T05:06:21;11.20;99.90
35559;DHT22;21661;50.794;-1.066;2023-05-17T05:08:47;11.10;99.90
35559;DHT22;21661;50.794;-1.066;2023-05-17T05:11:13;11.20;99.90
35559;DHT22;21661;50.794;-1.066;2023-05-17T05:13:38;11.40;99.90
35559;DHT22;21661;50.794;-1.066;2023-05-17T05:16:06;11.30;99.90
35559;DHT22;21661;50.794;-1.066;2023-05-17T05:18:32;11.30;99.90
35559;DHT22;21661;50.794;-1.066;2023-05-17T05:20:57;11.30;99.90
35559;DHT22;21661;50.794;-1.066;2023-05-17T05:23:23;11.40;99.90
35559;DHT22;21661;50.794;-1.066;2023-05-17T05:25:49;11.30;99.90
35559;DHT22;21661;50.794;-1.066;2023-05-17T05:28:15;11.40;99.90
35559;DHT22;21661;50.794;-1.066;2023-05-17T05:30:40;11.40;99.90
35559;DHT22;21661;50.794;-1.066;2023-05-17T05:33:06;11.40;99.90
35559;DHT22;21661;50.794;-1.066;2023-05-17T05:35:32;11.40;99.90
35559;DHT22;21661;50.794;-1.066;2023-05-17T05:37:58;11.40;99.90
35559;DHT22;21661;50.794;-1.066;2023-05-17T05:40:24;11.50;99.90
35559;DHT22;21661;50.794;-1.066;2023-05-17T05:42:50;11.50;99.90
35559;DHT22;21661;50.794;-1.066;2023-05-17T05:45:17;11.50;99.90
35559;DHT22;21661;50.794;-1.066;2023-05-17T05:47:42;11.60;99.90
35559;DHT22;21661;50.794;-1.066;2023-05-17T05:50:09;11.60;99.90
35559;DHT22;21661;50.794;-1.066;2023-05-17T05:52:35;11.60;99.90
35559;DHT22;21661;50.794;-1.066;2023-05-17T05:55:01;11.60;99.90
35559;DHT22;21661;50.794;-1.066;2023-05-17T05:57:26;11.60;99.90
35559;DHT22;21661;50.794;-1.066;2023-05-17T05:59:52;11.70;99.90
35559;DHT22;21661;50.794;-1.066;2023-05-17T06:02:17;11.70;99.90
35559;DHT22;21661;50.794;-1.066;2023-05-17T06:04:46;11.70;99.90
35559;DHT22;21661;50.794;-1.066;2023-05-17T06:07:12;11.70;99.90
35559;DHT22;21661;50.794;-1.066;2023-05-17T06:09:38;11.80;99.90
35559;DHT22;21661;50.794;-1.066;2023-05-17T06:12:04;11.70;99.90
35559;DHT22;21661;50.794;-1.066;2023-05-17T06:14:29;11.70;99.90
35559;DHT22;21661;50.794;-1.066;2023-05-17T06:16:55;11.80;99.90
35559;DHT22;21661;50.794;-1.066;2023-05-17T06:19:21;11.80;99.90
35559;DHT22;21661;50.794;-1.066;2023-05-17T06:21:46;11.90;99.90
35559;DHT22;21661;50.794;-1.066;2023-05-17T06:24:12;11.90;99.90
35559;DHT22;21661;50.794;-1.066;2023-05-17T06:26:37;11.90;99.90
35559;DHT22;21661;50.794;-1.066;2023-05-17T06:29:05;11.90;99.90
35559;DHT22;21661;50.794;-1.066;2023-05-17T06:31:30;11.90;99.90
35559;DHT22;21661;50.794;-1.066;2023-05-17T06:33:56;11.90;99.90
35559;DHT22;21661;50.794;-1.066;2023-05-17T06:36:22;11.80;99.90
35559;DHT22;21661;50.794;-1.066;2023-05-17T06:38:48;11.80;99.90
35559;DHT22;21661;50.794;-1.066;2023-05-17T06:41:13;11.90;99.90
35559;DHT22;21661;50.794;-1.066;2023-05-17T06:43:39;11.90;99.90
35559;DHT22;21661;50.794;-1.066;2023-05-17T06:46:04;12.00;99.90
35559;DHT22;21661;50.794;-1.066;2023-05-17T06:48:30;12.00;99.90
35559;DHT22;21661;50.794;-1.066;2023-05-17T06:50:56;12.10;99.90
35559;DHT22;21661;50.794;-1.066;2023-05-17T06:53:21;12.10;99.90
35559;DHT22;21661;50.794;-1.066;2023-05-17T06:55:47;12.10;99.90
35559;DHT22;21661;50.794;-1.066;2023-05-17T06:58:12;12.20;99.90
35559;DHT22;21661;50.794;-1.066;2023-05-17T07:00:38;12.20;99.90
35559;DHT22;21661;50.794;-1.066;2023-05-17T07:03:04;12.20;99.90
35559;DHT22;21661;50.794;-1.066;2023-05-17T07:05:30;12.30;99.90
35559;DHT22;21661;50.794;-1.066;2023-05-17T07:07:57;12.50;99.90
35559;DHT22;21661;50.794;-1.066;2023-05-17T07:10:23;12.40;99.90
35559;DHT22;21661;50.794;-1.066;2023-05-17T07:12:48;12.40;99.90
35559;DHT22;21661;50.794;-1.066;2023-05-17T07:15:14;12.50;99.90
35559;DHT22;21661;50.794;-1.066;2023-05-17T07:17:40;12.50;99.90
35559;DHT22;21661;50.794;-1.066;2023-05-17T07:20:06;12.60;99.90
35559;DHT22;21661;50.794;-1.066;2023-05-17T07:22:32;12.70;99.90
35559;DHT22;21661;50.794;-1.066;2023-05-17T07:24:57;12.80;99.90
35559;DHT22;21661;50.794;-1.066;2023-05-17T07:27:23;12.80;99.90
35559;DHT22;21661;50.794;-1.066;2023-05-17T07:29:48;12.80;99.90
35559;DHT22;21661;50.794;-1.066;2023-05-17T07:32:14;12.80;99.90
35559;DHT22;21661;50.794;-1.066;2023-05-17T07:34:41;12.90;99.90
35559;DHT22;21661;50.794;-1.066;2023-05-17T07:37:06;12.90;99.90
35559;DHT22;21661;50.794;-1.066;2023-05-17T07:39:32;13.00;99.90
35559;DHT22;21661;50.794;-1.066;2023-05-17T07:41:58;13.00;99.90
35559;DHT22;21661;50.794;-1.066;2023-05-17T07:44:23;13.10;99.90
35559;DHT22;21661;50.794;-1.066;2023-05-17T07:46:49;13.20;99.90
35559;DHT22;21661;50.794;-1.066;2023-05-17T07:49:14;13.20;99.90
35559;DHT22;21661;50.794;-1.066;2023-05-17T07:51:40;13.20;99.90
35559;DHT22;21661;50.794;-1.066;2023-05-17T07:54:06;13.30;99.90
35559;DHT22;21661;50.794;-1.066;2023-05-17T07:56:31;13.30;99.90
35559;DHT22;21661;50.794;-1.066;2023-05-17T07:58:58;13.40;99.90
35559;DHT22;21661;50.794;-1.066;2023-05-17T08:01:24;13.40;99.90
35559;DHT22;21661;50.794;-1.066;2023-05-17T08:03:49;13.50;99.90
35559;DHT22;21661;50.794;-1.066;2023-05-17T08:06:16;13.50;99.90
35559;DHT22;21661;50.794;-1.066;2023-05-17T08:08:42;13.50;99.90
35559;DHT22;21661;50.794;-1.066;2023-05-17T08:11:09;13.60;99.90
35559;DHT22;21661;50.794;-1.066;2023-05-17T08:13:34;13.70;99.90
35559;DHT22;21661;50.794;-1.066;2023-05-17T08:16:00;13.80;99.90
35559;DHT22;21661;50.794;-1.066;2023-05-17T08:18:30;13.80;99.90
35559;DHT22;21661;50.794;-1.066;2023-05-17T08:20:56;13.80;99.90
35559;DHT22;21661;50.794;-1.066;2023-05-17T08:23:21;13.90;99.90
35559;DHT22;21661;50.794;-1.066;2023-05-17T08:25:47;14.00;99.90
35559;DHT22;21661;50.794;-1.066;2023-05-17T08:28:13;14.10;99.90
35559;DHT22;21661;50.794;-1.066;2023-05-17T08:30:38;14.10;99.90
35559;DHT22;21661;50.794;-1.066;2023-05-17T08:33:04;14.20;99.90
35559;DHT22;21661;50.794;-1.066;2023-05-17T08:35:30;14.20;99.90
35559;DHT22;21661;50.794;-1.066;2023-05-17T08:37:56;14.30;99.90
35559;DHT22;21661;50.794;-1.066;2023-05-17T08:40:22;14.40;99.90
35559;DHT22;21661;50.794;-1.066;2023-05-17T08:42:49;14.50;99.90
35559;DHT22;21661;50.794;-1.066;2023-05-17T08:45:15;14.50;99.90
35559;DHT22;21661;50.794;-1.066;2023-05-17T08:47:42;14.50;99.90
35559;DHT22;21661;50.794;-1.066;2023-05-17T08:50:08;14.60;99.90
35559;DHT22;21661;50.794;-1.066;2023-05-17T08:52:36;14.70;99.90
35559;DHT22;21661;50.794;-1.066;2023-05-17T08:55:02;14.70;99.90
35559;DHT22;21661;50.794;-1.066;2023-05-17T08:57:33;14.80;99.90
35559;DHT22;21661;50.794;-1.066;2023-05-17T09:00:01;14.80;99.90
35559;DHT22;21661;50.794;-1.066;2023-05-17T09:02:31;14.80;99.90
35559;DHT22;21661;50.794;-1.066;2023-05-17T09:04:58;14.90;99.90
35559;DHT22;21661;50.794;-1.066;2023-05-17T09:07:24;14.90;99.90
35559;DHT22;21661;50.794;-1.066;2023-05-17T09:09:53;15.00;99.90
35559;DHT22;21661;50.794;-1.066;2023-05-17T09:12:21;15.10;99.90
35559;DHT22;21661;50.794;-1.066;2023-05-17T09:14:47;15.10;99.90
35559;DHT22;21661;50.794;-1.066;2023-05-17T09:17:18;15.20;99.90
35559;DHT22;21661;50.794;-1.066;2023-05-17T09:19:46;15.30;99.90
35559;DHT22;21661;50.794;-1.066;2023-05-17T09:22:18;15.30;99.90
35559;DHT22;21661;50.794;-1.066;2023-05-17T09:24:44;15.40;99.90
35559;DHT22;21661;50.794;-1.066;2023-05-17T09:27:16;15.30;99.90
35559;DHT22;21661;50.794;-1.066;2023-05-17T09:29:43;15.40;99.90
35559;DHT22;21661;50.794;-1.066;2023-05-17T09:32:14;15.40;99.90
35559;DHT22;21661;50.794;-1.066;2023-05-17T09:34:40;15.50;99.90
35559;DHT22;21661;50.794;-1.066;2023-05-17T09:37:17;15.60;99.90
35559;DHT22;21661;50.794;-1.066;2023-05-17T09:39:45;15.60;99.90
35559;DHT22;21661;50.794;-1.066;2023-05-17T09:42:12;15.70;99.90
35559;DHT22;21661;50.794;-1.066;2023-05-17T09:44:52;15.70;99.90
35559;DHT22;21661;50.794;-1.066;2023-05-17T09:47:30;15.60;99.90
35559;DHT22;21661;50.794;-1.066;2023-05-17T09:50:00;15.70;99.90
35559;DHT22;21661;50.794;-1.066;2023-05-17T09:52:29;15.80;99.90
35559;DHT22;21661;50.794;-1.066;2023-05-17T09:54:59;15.90;99.90
35559;DHT22;21661;50.794;-1.066;2023-05-17T09:57:27;15.90;99.90
35559;DHT22;21661;50.794;-1.066;2023-05-17T09:59:54;15.90;99.90
35559;DHT22;21661;50.794;-1.066;2023-05-17T10:02:30;15.90;99.90
35559;DHT22;21661;50.794;-1.066;2023-05-17T10:04:57;15.80;99.90
35559;DHT22;21661;50.794;-1.066;2023-05-17T10:07:24;15.80;99.90
35559;DHT22;21661;50.794;-1.066;2023-05-17T10:09:51;15.80;99.90
35559;DHT22;21661;50.794;-1.066;2023-05-17T10:12:20;15.80;99.90
35559;DHT22;21661;50.794;-1.066;2023-05-17T10:14:46;15.90;99.90
35559;DHT22;21661;50.794;-1.066;2023-05-17T10:17:13;16.00;99.90
35559;DHT22;21661;50.794;-1.066;2023-05-17T10:19:40;16.10;99.90
35559;DHT22;21661;50.794;-1.066;2023-05-17T10:22:06;16.10;99.90
35559;DHT22;21661;50.794;-1.066;2023-05-17T10:24:36;16.10;99.90
35559;DHT22;21661;50.794;-1.066;2023-05-17T10:27:02;16.10;99.90
35559;DHT22;21661;50.794;-1.066;2023-05-17T10:29:29;16.30;99.90
35559;DHT22;21661;50.794;-1.066;2023-05-17T10:32:03;16.30;99.90
35559;DHT22;21661;50.794;-1.066;2023-05-17T10:34:30;16.30;99.90
35559;DHT22;21661;50.794;-1.066;2023-05-17T10:36:59;16.20;99.90
35559;DHT22;21661;50.794;-1.066;2023-05-17T10:39:25;16.20;99.90
35559;DHT22;21661;50.794;-1.066;2023-05-17T10:41:52;16.20;99.90
35559;DHT22;21661;50.794;-1.066;2023-05-17T10:44:19;16.30;99.90
35559;DHT22;21661;50.794;-1.066;2023-05-17T10:46:55;16.70;99.90
35559;DHT22;21661;50.794;-1.066;2023-05-17T10:49:24;16.50;99.90
35559;DHT22;21661;50.794;-1.066;2023-05-17T10:51:51;16.70;99.90
35559;DHT22;21661;50.794;-1.066;2023-05-17T10:54:17;16.80;99.90
35559;DHT22;21661;50.794;-1.066;2023-05-17T10:56:50;16.80;99.90
35559;DHT22;21661;50.794;-1.066;2023-05-17T10:59:25;16.80;99.90
35559;DHT22;21661;50.794;-1.066;2023-05-17T11:01:57;16.80;99.90
35559;DHT22;21661;50.794;-1.066;2023-05-17T11:06:51;17.00;99.90
35559;DHT22;21661;50.794;-1.066;2023-05-17T11:09:21;17.00;99.90
35559;DHT22;21661;50.794;-1.066;2023-05-17T11:12:09;17.00;99.90
35559;DHT22;21661;50.794;-1.066;2023-05-17T11:17:16;17.00;99.90
35559;DHT22;21661;50.794;-1.066;2023-05-17T11:22:27;17.20;99.90
35559;DHT22;21661;50.794;-1.066;2023-05-17T11:24:55;17.30;99.90
35559;DHT22;21661;50.794;-1.066;2023-05-17T11:27:22;17.30;99.90
35559;DHT22;21661;50.794;-1.066;2023-05-17T11:29:56;17.30;99.90
35559;DHT22;21661;50.794;-1.066;2023-05-17T11:32:31;17.40;99.90
35559;DHT22;21661;50.794;-1.066;2023-05-17T11:35:00;17.50;99.90
35559;DHT22;21661;50.794;-1.066;2023-05-17T11:37:27;17.50;99.90
35559;DHT22;21661;50.794;-1.066;2023-05-17T11:40:06;17.50;99.90
35559;DHT22;21661;50.794;-1.066;2023-05-17T11:42:33;17.60;99.90
35559;DHT22;21661;50.794;-1.066;2023-05-17T11:45:00;17.60;99.90
35559;DHT22;21661;50.794;-1.066;2023-05-17T11:47:27;17.40;99.90
35559;DHT22;21661;50.794;-1.066;2023-05-17T11:49:54;17.50;99.90
35559;DHT22;21661;50.794;-1.066;2023-05-17T11:52:20;17.40;99.90
35559;DHT22;21661;50.794;-1.066;2023-05-17T11:54:47;17.40;99.90
35559;DHT22;21661;50.794;-1.066;2023-05-17T11:57:14;17.40;99.90
35559;DHT22;21661;50.794;-1.066;2023-05-17T11:59:42;17.50;99.90
35559;DHT22;21661;50.794;-1.066;2023-05-17T12:02:08;17.70;99.90
35559;DHT22;21661;50.794;-1.066;2023-05-17T12:04:36;17.70;99.90
35559;DHT22;21661;50.794;-1.066;2023-05-17T12:07:02;17.90;99.90
35559;DHT22;21661;50.794;-1.066;2023-05-17T12:09:28;18.10;99.90
35559;DHT22;21661;50.794;-1.066;2023-05-17T12:11:54;18.40;99.90
35559;DHT22;21661;50.794;-1.066;2023-05-17T12:14:21;18.50;99.90
35559;DHT22;21661;50.794;-1.066;2023-05-17T12:16:50;18.70;99.90
35559;DHT22;21661;50.794;-1.066;2023-05-17T12:19:21;18.80;99.90
35559;DHT22;21661;50.794;-1.066;2023-05-17T12:21:48;18.90;99.90
35559;DHT22;21661;50.794;-1.066;2023-05-17T12:24:14;18.80;99.90
35559;DHT22;21661;50.794;-1.066;2023-05-17T12:26:44;18.80;99.90
35559;DHT22;21661;50.794;-1.066;2023-05-17T12:29:11;18.80;99.90
35559;DHT22;21661;50.794;-1.066;2023-05-17T12:31:49;18.90;99.90
35559;DHT22;21661;50.794;-1.066;2023-05-17T12:34:17;19.00;99.90
35559;DHT22;21661;50.794;-1.066;2023-05-17T12:36:43;19.10;99.90
35559;DHT22;21661;50.794;-1.066;2023-05-17T12:39:11;19.00;99.90
35559;DHT22;21661;50.794;-1.066;2023-05-17T12:41:38;19.00;99.90
35559;DHT22;21661;50.794;-1.066;2023-05-17T12:44:07;19.10;99.90
35559;DHT22;21661;50.794;-1.066;2023-05-17T12:46:33;19.10;99.90
35559;DHT22;21661;50.794;-1.066;2023-05-17T12:49:06;19.00;99.90
35559;DHT22;21661;50.794;-1.066;2023-05-17T12:52:02;18.80;99.90
35559;DHT22;21661;50.794;-1.066;2023-05-17T12:54:28;18.70;99.90
35559;DHT22;21661;50.794;-1.066;2023-05-17T12:56:54;18.60;99.90
35559;DHT22;21661;50.794;-1.066;2023-05-17T12:59:20;18.60;99.90
35559;DHT22;21661;50.794;-1.066;2023-05-17T13:01:55;18.70;99.90
35559;DHT22;21661;50.794;-1.066;2023-05-17T13:04:28;18.70;99.90
35559;DHT22;21661;50.794;-1.066;2023-05-17T13:06:58;18.90;99.90
35559;DHT22;21661;50.794;-1.066;2023-05-17T13:09:26;19.10;99.90
35559;DHT22;21661;50.794;-1.066;2023-05-17T13:11:57;19.00;99.90
35559;DHT22;21661;50.794;-1.066;2023-05-17T13:14:38;18.90;99.90
35559;DHT22;21661;50.794;-1.066;2023-05-17T13:17:33;18.90;99.90
35559;DHT22;21661;50.794;-1.066;2023-05-17T13:19:59;19.00;99.90
35559;DHT22;21661;50.794;-1.066;2023-05-17T13:22:25;19.00;99.90
35559;DHT22;21661;50.794;-1.066;2023-05-17T13:24:51;19.00;99.90
35559;DHT22;21661;50.794;-1.066;2023-05-17T13:27:17;18.90;99.90
35559;DHT22;21661;50.794;-1.066;2023-05-17T13:29:43;18.70;99.90
35559;DHT22;21661;50.794;-1.066;2023-05-17T13:32:10;18.80;99.90
35559;DHT22;21661;50.794;-1.066;2023-05-17T13:34:38;18.90;99.90
35559;DHT22;21661;50.794;-1.066;2023-05-17T13:37:04;18.90;99.90
35559;DHT22;21661;50.794;-1.066;2023-05-17T13:39:30;18.90;99.90
35559;DHT22;21661;50.794;-1.066;2023-05-17T13:41:56;19.00;99.90
35559;DHT22;21661;50.794;-1.066;2023-05-17T13:44:22;19.20;99.90
35559;DHT22;21661;50.794;-1.066;2023-05-17T13:46:47;19.30;99.90
35559;DHT22;21661;50.794;-1.066;2023-05-17T13:49:13;19.40;99.90
35559;DHT22;21661;50.794;-1.066;2023-05-17T13:51:38;19.60;99.90
35559;DHT22;21661;50.794;-1.066;2023-05-17T13:54:07;19.80;99.90
35559;DHT22;21661;50.794;-1.066;2023-05-17T13:56:33;20.00;99.90
35559;DHT22;21661;50.794;-1.066;2023-05-17T13:58:59;20.10;99.90
35559;DHT22;21661;50.794;-1.066;2023-05-17T14:01:25;20.10;99.90
35559;DHT22;21661;50.794;-1.066;2023-05-17T14:03:50;20.10;99.90
35559;DHT22;21661;50.794;-1.066;2023-05-17T14:06:16;20.10;99.90
35559;DHT22;21661;50.794;-1.066;2023-05-17T14:08:42;20.10;99.90
35559;DHT22;21661;50.794;-1.066;2023-05-17T14:11:08;20.10;99.90
35559;DHT22;21661;50.794;-1.066;2023-05-17T14:13:34;20.20;99.90
35559;DHT22;21661;50.794;-1.066;2023-05-17T14:16:00;20.30;99.90
35559;DHT22;21661;50.794;-1.066;2023-05-17T14:18:25;20.30;99.90
35559;DHT22;21661;50.794;-1.066;2023-05-17T14:20:51;20.30;99.90
35559;DHT22;21661;50.794;-1.066;2023-05-17T14:23:17;20.10;99.90
35559;DHT22;21661;50.794;-1.066;2023-05-17T14:25:43;20.10;99.90
35559;DHT22;21661;50.794;-1.066;2023-05-17T14:28:09;20.10;99.90
35559;DHT22;21661;50.794;-1.066;2023-05-17T14:30:36;20.10;99.90
35559;DHT22;21661;50.794;-1.066;2023-05-17T14:33:02;20.10;99.90
35559;DHT22;21661;50.794;-1.066;2023-05-17T14:35:27;20.10;99.90
35559;DHT22;21661;50.794;-1.066;2023-05-17T14:37:54;20.00;99.90
35559;DHT22;21661;50.794;-1.066;2023-05-17T14:40:21;19.90;99.90
35559;DHT22;21661;50.794;-1.066;2023-05-17T14:42:46;19.90;99.90
35559;DHT22;21661;50.794;-1.066;2023-05-17T14:45:12;20.00;99.90
35559;DHT22;21661;50.794;-1.066;2023-05-17T14:47:39;20.20;99.90
35559;DHT22;21661;50.794;-1.066;2023-05-17T14:50:05;20.30;99.90
35559;DHT22;21661;50.794;-1.066;2023-05-17T14:52:31;20.30;99.90
35559;DHT22;21661;50.794;-1.066;2023-05-17T14:54:57;20.30;99.90
35559;DHT22;21661;50.794;-1.066;2023-05-17T14:57:23;20.30;99.90
35559;DHT22;21661;50.794;-1.066;2023-05-17T14:59:49;20.20;99.90
35559;DHT22;21661;50.794;-1.066;2023-05-17T15:02:14;20.10;99.90
35559;DHT22;21661;50.794;-1.066;2023-05-17T15:04:40;20.20;99.90
35559;DHT22;21661;50.794;-1.066;2023-05-17T15:07:06;20.30;99.90
35559;DHT22;21661;50.794;-1.066;2023-05-17T15:09:36;20.30;99.90
35559;DHT22;21661;50.794;-1.066;2023-05-17T15:12:02;20.40;99.90
35559;DHT22;21661;50.794;-1.066;2023-05-17T15:14:28;20.30;99.90
35559;DHT22;21661;50.794;-1.066;2023-05-17T15:16:54;20.20;99.90
35559;DHT22;21661;50.794;-1.066;2023-05-17T15:19:20;20.30;99.90
35559;DHT22;21661;50.794;-1.066;2023-05-17T15:21:46;20.10;99.90
35559;DHT22;21661;50.794;-1.066;2023-05-17T15:24:13;20.10;99.90
35559;DHT22;21661;50.794;-1.066;2023-05-17T15:26:38;19.90;99.90
35559;DHT22;21661;50.794;-1.066;2023-05-17T15:29:04;19.60;99.90
35559;DHT22;21661;50.794;-1.066;2023-05-17T15:31:30;19.40;99.90
35559;DHT22;21661;50.794;-1.066;2023-05-17T15:33:56;19.30;99.90